Walla Walla, Washington
Current Conditions -  °F | °C
As of 1:53 AM on Saturday 29 Nov 2014 (Local Time) from KALW Reporting Station
Overcast Overcast  
Wind Chill:   Ceiling: 4000
Heat Index:   Visibility: 10mi
Dew Point:   Wind: 16mph
Humidity: 71%   Direction: 220°SW
Pressure: 29.48"   Gusts: NA
Location:  46.07°N, 118.34°W
Report Text: KALW 290953Z AUTO 22014KT 10SM OVC040 07/02 A2948 RMK AO2 PK WND 25030/0909 RAB21E34 SLP984 P0000 T00720022
Loading
Personal Weather Stations






























Interactive Weather Map New forecast layout! Learn more

10-Day Weather Forecast

Advertisements
Track Severe Weather on mobile